Time;durP1;ratioP1;P1;durP2;ratioP2;P2;SDS_P1;SDS_P2;PMS_P1;PMS_P2;Temp;Humidity;BMP_temperature;BMP_pressure;BME280_temperature;BME280_humidity;BME280_pressure;Samples;Min_cycle;Max_cycle;Signal;HPM_P1;HPM_P2
2022/11/20 00:01:42;;;;;;;;;7.67;6.00;;;;;10.87;61.82;101097.03;5099447;27;45984;-53
2022/11/20 00:04:08;;;;;;;;;8.00;6.00;;;;;10.84;61.91;101092.84;5099407;27;45394;-56
2022/11/20 00:06:33;;;;;;;;;8.00;6.33;;;;;10.81;61.61;101092.28;5099259;27;45988;-53
2022/11/20 00:09:01;;;;;;;;;7.67;6.00;;;;;10.72;62.03;101078.81;5098406;27;45332;-53
2022/11/20 00:11:28;;;;;;;;;7.00;3.00;;;;;10.80;61.69;101094.09;5099172;27;47309;-52
2022/11/20 00:13:56;;;;;;;;;6.00;5.00;;;;;10.75;61.55;101091.03;5098961;27;45328;-52
2022/11/20 00:16:24;;;;;;;;;7.00;6.00;;;;;10.72;61.79;101101.94;5099109;27;45263;-55
2022/11/20 00:18:50;;;;;;;;;5.00;4.33;;;;;10.69;61.22;101100.38;5099257;27;45419;-53
2022/11/20 00:21:22;;;;;;;;;11.33;5.67;;;;;10.66;61.25;101095.34;5098760;27;45311;-53
2022/11/20 00:23:49;;;;;;;;;7.00;5.00;;;;;10.64;61.61;101101.78;5098934;27;45262;-55
2022/11/20 00:26:17;;;;;;;;;5.67;5.67;;;;;10.63;61.84;101098.28;5098672;27;45418;-53
2022/11/20 00:28:44;;;;;;;;;8.67;5.33;;;;;10.54;61.43;101079.66;5099008;27;45314;-57
2022/11/20 00:31:13;;;;;;;;;10.33;6.00;;;;;10.61;61.67;101092.25;5098500;27;46996;-56
2022/11/20 00:33:39;;;;;;;;;5.67;5.67;;;;;10.61;61.34;101097.56;5098576;27;45381;-56
2022/11/20 00:36:10;;;;;;;;;6.33;6.33;;;;;10.61;61.41;101099.38;5098795;27;45319;-51
2022/11/20 00:38:35;;;;;;;;;5.33;3.00;;;;;10.56;61.55;101094.47;5098796;27;45384;-57
2022/11/20 00:41:07;;;;;;;;;7.00;5.00;;;;;10.59;61.61;101098.69;5098349;27;45751;-55
2022/11/20 00:43:32;;;;;;;;;2.67;2.67;;;;;10.58;61.37;101108.50;5098696;27;45350;-55
2022/11/20 00:46:05;;;;;;;;;3.67;2.00;;;;;10.55;61.47;101108.78;5097439;27;45548;-51
2022/11/20 00:48:30;;;;;;;;;5.00;2.00;;;;;10.53;61.35;101107.22;5098741;27;45437;-55
2022/11/20 00:50:57;;;;;;;;;5.00;5.00;;;;;10.44;61.71;101096.41;5098319;27;45314;-53
2022/11/20 00:53:22;;;;;;;;;5.67;5.67;;;;;10.44;61.23;101099.09;5098386;27;45412;-51
2022/11/20 00:55:56;;;;;;;;;6.33;3.67;;;;;10.47;61.53;101106.78;5098555;27;45414;-56
2022/11/20 00:58:22;;;;;;;;;6.00;4.33;;;;;10.45;61.36;101108.75;5098707;27;45411;-56
2022/11/20 01:00:49;;;;;;;;;6.00;3.33;;;;;10.46;61.47;101105.13;5096597;27;47554;-57
2022/11/20 01:03:14;;;;;;;;;6.00;5.00;;;;;10.44;61.39;101107.06;5098261;27;45347;-54
2022/11/20 01:05:40;;;;;;;;;5.67;5.67;;;;;10.44;61.56;101111.53;5098164;27;45453;-56
2022/11/20 01:08:05;;;;;;;;;3.00;3.00;;;;;10.41;61.38;101111.84;5097056;27;45397;-56
2022/11/20 01:10:30;;;;;;;;;4.00;2.00;;;;;10.28;60.87;101087.28;5097526;27;45346;-56
2022/11/20 01:15:39;;;;;;;;;4.33;2.33;;;;;10.33;61.13;101101.88;5098183;27;45432;-56
2022/11/20 01:18:05;;;;;;;;;2.00;2.00;;;;;10.28;61.21;101104.09;5098520;27;45420;-53
2022/11/20 01:20:35;;;;;;;;;5.67;3.00;;;;;10.28;61.00;101113.88;5097654;27;45325;-55
2022/11/20 01:23:00;;;;;;;;;2.33;2.33;;;;;10.24;61.20;101114.16;5097874;27;45313;-56
2022/11/20 01:25:25;;;;;;;;;3.67;2.00;;;;;10.22;61.09;101112.56;5098033;27;45342;-55
2022/11/20 01:27:51;;;;;;;;;3.00;3.00;;;;;10.20;61.18;101110.06;5098086;27;45401;-57
2022/11/20 01:30:16;;;;;;;;;3.00;3.00;;;;;10.17;61.24;101105.00;5097781;27;46199;-54
2022/11/20 01:32:41;;;;;;;;;4.33;4.33;;;;;10.08;61.29;101097.84;5097759;27;45641;-53
2022/11/20 01:35:09;;;;;;;;;6.00;4.33;;;;;10.15;61.15;101106.94;5097716;27;45349;-54
2022/11/20 01:37:35;;;;;;;;;9.00;2.33;;;;;10.11;61.12;101110.88;5098131;27;45356;-55
2022/11/20 01:40:00;;;;;;;;;6.67;3.67;;;;;10.07;61.54;101104.16;5097506;27;45342;-57
2022/11/20 01:45:53;;;;;;;;;3.00;2.00;;;;;10.02;61.52;101101.03;5097640;27;45364;-56
2022/11/20 01:48:23;;;;;;;;;1.33;1.33;;;;;9.97;61.59;101103.25;5097768;27;45173;-54
2022/11/20 01:50:50;;;;;;;;;8.33;2.00;;;;;9.95;61.63;101111.38;5097453;27;45502;-54
2022/11/20 01:53:21;;;;;;;;;1.67;1.67;;;;;9.90;61.81;101102.97;5097031;27;45454;-51
2022/11/20 01:55:52;;;;;;;;;3.33;2.33;;;;;9.88;61.87;101094.28;5097617;27;45253;-55
2022/11/20 01:58:22;;;;;;;;;5.00;3.00;;;;;9.95;61.90;101105.22;5097338;27;45486;-56
2022/11/20 02:00:48;;;;;;;;;7.67;2.00;;;;;9.94;61.56;101098.19;5097343;27;47198;-54
2022/11/20 02:03:18;;;;;;;;;1.33;1.33;;;;;9.93;61.80;101104.50;5097132;27;45923;-52
2022/11/20 02:05:49;;;;;;;;;7.00;2.67;;;;;9.92;61.82;101097.50;5097545;27;45294;-53
2022/11/20 02:08:15;;;;;;;;;5.00;3.00;;;;;9.92;62.18;101100.16;5097230;27;45385;-51
2022/11/20 02:10:41;;;;;;;;;3.00;3.00;;;;;9.91;61.71;101099.31;5097277;27;46229;-54
2022/11/20 02:15:51;;;;;;;;;4.33;2.00;;;;;9.87;62.07;101092.59;5097392;27;45418;-53
2022/11/20 02:18:19;;;;;;;;;3.00;2.00;;;;;9.82;61.80;101084.19;5097360;27;45464;-50
2022/11/20 02:20:48;;;;;;;;;4.00;2.00;;;;;9.79;61.93;101078.28;5097197;27;45662;-52
2022/11/20 02:23:37;;;;;;;;;5.33;2.00;;;;;9.85;62.07;101091.88;5097086;27;45421;-53
2022/11/20 02:26:08;;;;;;;;;3.00;2.00;;;;;9.82;62.47;101078.88;5096899;27;45497;-56
2022/11/20 02:28:34;;;;;;;;;4.33;1.00;;;;;9.88;62.46;101093.44;5096017;27;45319;-56
2022/11/20 02:31:00;;;;;;;;;8.33;2.00;;;;;9.89;62.28;101089.78;5096886;27;47201;-50
2022/11/20 02:33:26;;;;;;;;;3.67;2.33;;;;;9.89;62.26;101095.09;5096896;27;45439;-53
2022/11/20 02:35:51;;;;;;;;;2.00;2.00;;;;;9.91;61.79;101093.19;5095553;27;45342;-51
2022/11/20 02:38:17;;;;;;;;;10.33;1.67;;;;;9.89;62.21;101085.31;5097331;27;45368;-55
2022/11/20 02:40:43;;;;;;;;;4.33;2.00;;;;;9.88;61.90;101075.66;5096796;27;46306;-54
2022/11/20 02:43:09;;;;;;;;;6.00;1.67;;;;;9.90;62.12;101076.41;5096827;27;45402;-52
2022/11/20 02:45:34;;;;;;;;;4.33;1.00;;;;;9.89;61.57;101069.38;5096719;27;45329;-50
2022/11/20 02:48:00;;;;;;;;;1.67;1.67;;;;;9.90;61.58;101067.56;5097253;27;45365;-54
2022/11/20 02:50:26;;;;;;;;;2.00;2.00;;;;;9.92;61.45;101062.97;5097404;27;46033;-52
2022/11/20 02:52:51;;;;;;;;;6.00;3.67;;;;;9.91;61.90;101064.78;5097319;27;45297;-52
2022/11/20 02:55:16;;;;;;;;;0.33;0.33;;;;;9.91;61.53;101050.66;5097031;27;45366;-50
2022/11/20 02:57:42;;;;;;;;;2.67;2.00;;;;;9.91;61.11;101040.88;5097158;27;45487;-53
2022/11/20 03:00:08;;;;;;;;;1.00;1.00;;;;;9.93;61.61;101043.38;5096669;27;47223;-55
2022/11/20 03:02:33;;;;;;;;;1.67;1.00;;;;;9.91;61.60;101037.38;5096681;27;45391;-52
2022/11/20 03:04:58;;;;;;;;;2.00;2.00;;;;;9.94;60.95;101042.38;5096688;27;45803;-52
2022/11/20 03:07:24;;;;;;;;;3.00;3.00;;;;;9.95;61.07;101033.47;5096692;27;45484;-50
2022/11/20 03:09:49;;;;;;;;;2.67;2.00;;;;;9.94;61.27;101037.06;5097823;27;47012;-53
2022/11/20 03:12:15;;;;;;;;;1.33;1.00;;;;;9.93;61.54;101036.25;5099939;27;45511;-52
2022/11/20 03:14:40;;;;;;;;;1.67;1.00;;;;;9.91;61.23;101027.56;5100063;27;45576;-54
2022/11/20 03:17:05;;;;;;;;;1.33;1.33;;;;;9.87;61.69;101022.66;5100400;27;45539;-51
2022/11/20 03:19:31;;;;;;;;;0.00;0.00;;;;;9.88;61.19;101027.00;5100164;27;45416;-55
2022/11/20 03:21:56;;;;;;;;;6.67;3.00;;;;;9.84;61.70;101015.78;5098468;27;45374;-53
2022/11/20 03:24:21;;;;;;;;;1.00;1.00;;;;;9.86;61.74;101019.19;5100003;27;45309;-55
2022/11/20 03:26:47;;;;;;;;;1.33;1.33;;;;;9.85;61.87;101016.63;5100202;27;45197;-54
2022/11/20 03:29:12;;;;;;;;;1.33;1.33;;;;;9.86;62.13;101013.88;5099701;27;45984;-53
2022/11/20 03:31:40;;;;;;;;;1.33;1.33;;;;;9.87;62.38;101020.00;5100054;27;45325;-51
2022/11/20 03:34:07;;;;;;;;;2.00;2.00;;;;;9.87;62.11;101012.03;5099887;27;45310;-54
2022/11/20 03:36:33;;;;;;;;;4.33;2.00;;;;;9.88;62.06;101016.38;5098375;27;45448;-52
2022/11/20 03:38:58;;;;;;;;;2.67;1.00;;;;;9.85;62.51;101008.66;5099559;27;45363;-54
2022/11/20 03:41:30;;;;;;;;;1.00;1.00;;;;;9.85;62.51;101011.31;5099363;27;45353;-53
2022/11/20 03:43:57;;;;;;;;;2.00;1.00;;;;;9.85;62.46;101006.84;5099645;27;45218;-49
2022/11/20 03:46:23;;;;;;;;;7.00;5.00;;;;;9.83;62.36;101005.31;5099595;27;45453;-52
2022/11/20 03:48:49;;;;;;;;;5.67;3.00;;;;;9.79;62.76;101006.56;5099339;27;45402;-53
2022/11/20 03:51:23;;;;;;;;;5.00;5.00;;;;;9.74;62.62;100999.84;5099350;27;45492;-53
2022/11/20 03:53:50;;;;;;;;;2.00;2.00;;;;;9.70;62.31;101006.41;5099673;27;45338;-52
2022/11/20 03:56:18;;;;;;;;;3.67;3.00;;;;;9.66;63.07;101014.78;5099449;27;45393;-54
2022/11/20 03:58:43;;;;;;;;;3.00;3.00;;;;;9.58;62.77;101003.97;5099387;27;45472;-50
2022/11/20 04:01:18;;;;;;;;;5.00;2.67;;;;;9.50;63.13;100997.50;5099047;27;45334;-54
2022/11/20 04:03:44;;;;;;;;;5.33;5.33;;;;;9.48;63.45;100999.47;5099471;27;45376;-55
2022/11/20 04:06:18;;;;;;;;;6.67;4.33;;;;;9.48;63.08;100998.59;5099466;27;45329;-54
2022/11/20 04:08:44;;;;;;;;;4.67;4.67;;;;;9.45;63.17;100991.75;5098991;27;46335;-53
2022/11/20 04:11:10;;;;;;;;;4.33;4.33;;;;;9.44;63.65;100995.41;5098895;27;45524;-51
2022/11/20 04:13:36;;;;;;;;;8.67;4.00;;;;;9.39;64.06;100997.59;5099317;27;45172;-52
2022/11/20 04:16:01;;;;;;;;;5.00;5.00;;;;;9.37;63.50;101004.00;5099518;27;45195;-54
2022/11/20 04:18:26;;;;;;;;;5.00;5.00;;;;;9.39;64.00;100994.09;5098899;27;45411;-51
2022/11/20 04:20:52;;;;;;;;;13.67;4.67;;;;;9.41;63.71;100994.81;5099094;27;45733;-54
2022/11/20 04:23:17;;;;;;;;;8.00;6.33;;;;;9.42;63.37;100999.16;5098756;27;45448;-51
2022/11/20 04:25:42;;;;;;;;;4.33;4.33;;;;;9.42;64.30;100983.22;5099341;27;45263;-54
2022/11/20 04:28:07;;;;;;;;;6.33;3.67;;;;;9.42;63.58;100981.41;5098652;27;46264;-54
2022/11/20 04:30:33;;;;;;;;;9.67;5.00;;;;;9.40;63.77;100988.66;5098910;27;45377;-54
2022/11/20 04:32:58;;;;;;;;;1.00;1.00;;;;;9.42;63.90;100976.09;5099070;27;45457;-55
2022/11/20 04:35:23;;;;;;;;;5.67;2.33;;;;;9.41;63.67;100985.03;5098795;27;45372;-51
2022/11/20 04:37:51;;;;;;;;;2.00;2.00;;;;;9.40;64.24;100986.00;5098598;27;46298;-53
2022/11/20 04:40:16;;;;;;;;;5.33;5.33;;;;;9.42;64.57;100988.53;5098805;27;45326;-55
2022/11/20 04:42:42;;;;;;;;;3.00;3.00;;;;;9.44;63.95;100983.94;5098679;27;45328;-54
2022/11/20 04:45:07;;;;;;;;;5.00;2.67;;;;;9.44;64.05;100983.94;5098883;27;45253;-54
2022/11/20 04:47:33;;;;;;;;;2.33;2.00;;;;;9.43;63.80;100985.72;5098426;27;45409;-52
2022/11/20 04:49:58;;;;;;;;;3.67;3.33;;;;;9.41;63.39;100985.03;5098703;27;45328;-55
2022/11/20 04:52:23;;;;;;;;;5.33;2.67;;;;;9.39;63.69;100983.47;5098623;27;45217;-55
2022/11/20 04:54:52;;;;;;;;;3.00;3.00;;;;;9.37;63.70;100983.63;5098827;27;45237;-54
2022/11/20 04:57:17;;;;;;;;;5.00;2.00;;;;;9.36;64.29;100981.94;5098471;27;46236;-55
2022/11/20 04:59:43;;;;;;;;;5.33;2.67;;;;;9.36;63.94;100973.97;5098389;27;45393;-53
2022/11/20 05:02:08;;;;;;;;;3.00;1.00;;;;;9.36;64.27;100973.13;5098575;27;45326;-51
2022/11/20 05:04:33;;;;;;;;;3.00;3.00;;;;;9.36;63.60;100981.94;5098776;27;45404;-54
2022/11/20 05:06:59;;;;;;;;;4.67;2.00;;;;;9.36;63.93;100973.97;5098103;27;46339;-53
2022/11/20 05:09:24;;;;;;;;;1.00;1.00;;;;;9.35;63.83;100969.63;5098751;27;45437;-55
2022/11/20 05:11:49;;;;;;;;;5.00;4.33;;;;;9.35;63.50;100969.63;5099079;27;45520;-52
2022/11/20 05:14:15;;;;;;;;;2.00;2.00;;;;;9.34;63.88;100973.25;5099675;27;45447;-53
2022/11/20 05:16:40;;;;;;;;;2.00;2.00;;;;;9.29;64.18;100975.47;5098841;27;45344;-54
2022/11/20 05:19:06;;;;;;;;;2.00;2.00;;;;;9.27;64.02;100969.47;5098180;27;45432;-53
2022/11/20 05:21:32;;;;;;;;;5.33;3.00;;;;;9.24;63.94;100973.22;5098374;27;45283;-54
2022/11/20 05:23:57;;;;;;;;;6.67;3.00;;;;;9.20;63.65;100963.00;5098267;27;45291;-54
2022/11/20 05:26:23;;;;;;;;;5.00;5.00;;;;;9.25;63.56;100958.97;5097857;27;45947;-56
2022/11/20 05:28:49;;;;;;;;;2.67;2.67;;;;;9.22;64.31;100961.88;5098033;27;45360;-51
2022/11/20 05:31:21;;;;;;;;;2.00;2.00;;;;;9.21;64.32;100951.41;5098066;27;45380;-55
2022/11/20 05:33:47;;;;;;;;;4.00;4.00;;;;;9.25;64.46;100958.13;5097614;27;45426;-52
2022/11/20 05:36:14;;;;;;;;;5.67;3.33;;;;;9.27;64.23;100966.81;5097614;27;46199;-54
2022/11/20 05:38:40;;;;;;;;;10.00;5.00;;;;;9.25;63.70;100964.28;5097747;27;45366;-53
2022/11/20 05:41:17;;;;;;;;;6.00;2.00;;;;;9.22;64.00;100953.06;5097772;27;45354;-55
2022/11/20 05:43:44;;;;;;;;;8.67;6.00;;;;;9.14;63.93;100945.81;5097755;27;45323;-56
2022/11/20 05:46:12;;;;;;;;;3.33;3.33;;;;;9.24;63.73;100961.75;5097272;27;47175;-54
2022/11/20 05:48:39;;;;;;;;;2.00;1.00;;;;;9.20;63.66;100963.00;5097554;27;45385;-56
2022/11/20 05:51:07;;;;;;;;;6.67;5.00;;;;;9.17;64.03;100960.59;5096216;27;45462;-56
2022/11/20 05:53:34;;;;;;;;;3.00;3.00;;;;;9.14;63.60;100963.50;5097622;27;45466;-51
2022/11/20 05:56:02;;;;;;;;;5.33;4.00;;;;;9.05;63.87;100957.19;5097268;27;45342;-56
2022/11/20 05:58:28;;;;;;;;;6.33;4.67;;;;;9.09;64.69;100958.59;5097318;27;45388;-54
2022/11/20 06:00:54;;;;;;;;;5.33;4.67;;;;;9.06;64.01;100958.88;5097610;27;45334;-52
2022/11/20 06:03:19;;;;;;;;;9.67;6.00;;;;;8.97;64.65;100951.69;5097482;27;45217;-53
2022/11/20 06:05:45;;;;;;;;;8.67;6.33;;;;;9.00;64.30;100949.63;5097362;27;45759;-55
2022/11/20 06:08:10;;;;;;;;;9.33;6.00;;;;;9.02;64.92;100961.91;5097127;27;45263;-50
2022/11/20 06:10:36;;;;;;;;;10.67;6.00;;;;;8.98;64.77;100953.41;5097438;27;45195;-56
2022/11/20 06:13:01;;;;;;;;;5.67;4.00;;;;;8.97;64.09;100949.03;5097687;27;45441;-53
2022/11/20 06:15:26;;;;;;;;;7.67;6.00;;;;;8.93;64.23;100939.66;5097209;27;46099;-55
2022/11/20 06:17:53;;;;;;;;;8.00;5.00;;;;;8.93;64.73;100950.28;5097623;27;45370;-52
2022/11/20 06:20:19;;;;;;;;;5.00;3.00;;;;;8.90;64.11;100951.38;5097793;27;45323;-52
2022/11/20 06:22:44;;;;;;;;;8.33;6.33;;;;;8.89;64.47;100943.53;5097549;27;45396;-52
2022/11/20 06:25:09;;;;;;;;;1.00;1.00;;;;;8.89;64.94;100948.84;5097307;27;45432;-52
2022/11/20 06:27:35;;;;;;;;;5.33;5.00;;;;;8.85;65.07;100952.72;5096957;27;45464;-49
2022/11/20 06:30:00;;;;;;;;;5.00;5.00;;;;;8.82;65.33;100939.75;5097301;27;45370;-52
2022/11/20 06:32:25;;;;;;;;;11.00;6.33;;;;;8.80;64.56;100944.34;5097463;27;45435;-53
2022/11/20 06:34:51;;;;;;;;;9.67;5.67;;;;;8.76;65.07;100946.41;5097118;27;47115;-52
2022/11/20 06:37:16;;;;;;;;;6.67;5.33;;;;;8.75;65.31;100947.38;5095735;27;45451;-54
2022/11/20 06:39:41;;;;;;;;;4.67;3.67;;;;;8.74;65.26;100954.50;5096537;27;45451;-53
2022/11/20 06:42:06;;;;;;;;;6.00;6.00;;;;;8.71;65.09;100946.78;5095936;27;45503;-52
2022/11/20 06:44:32;;;;;;;;;9.67;7.00;;;;;8.70;65.45;100949.59;5097426;27;46823;-50
2022/11/20 06:46:57;;;;;;;;;7.67;6.67;;;;;8.61;65.44;100926.50;5100447;27;45513;-53
2022/11/20 06:49:23;;;;;;;;;10.00;8.00;;;;;8.60;65.47;100941.56;5100725;27;45334;-54
2022/11/20 06:51:48;;;;;;;;;9.50;9.50;;;;;8.55;66.42;100937.59;5100802;27;45352;-54
2022/11/20 06:54:13;;;;;;;;;11.67;9.00;;;;;8.51;65.94;100942.31;5100297;27;45273;-54
2022/11/20 06:56:39;;;;;;;;;8.33;8.33;;;;;8.50;66.48;100943.28;5100459;27;45308;-53
2022/11/20 06:59:06;;;;;;;;;8.33;8.33;;;;;8.44;65.89;100942.00;5100385;27;45354;-52
2022/11/20 07:01:31;;;;;;;;;9.33;8.00;;;;;8.36;66.26;100946.22;5100846;27;45329;-53
2022/11/20 07:03:56;;;;;;;;;9.00;9.00;;;;;8.35;66.49;100952.50;5100103;27;45383;-51
2022/11/20 07:06:22;;;;;;;;;10.25;9.25;;;;;8.36;66.21;100952.38;5100239;27;45434;-53
2022/11/20 07:08:47;;;;;;;;;12.75;10.00;;;;;8.35;66.17;100952.50;5100404;27;45216;-51
2022/11/20 07:11:13;;;;;;;;;14.25;10.00;;;;;8.29;66.88;100963.59;5100699;27;45481;-51
2022/11/20 07:13:38;;;;;;;;;12.00;9.00;;;;;8.29;66.51;100960.94;5100531;27;46097;-51
2022/11/20 07:16:06;;;;;;;;;5.00;1.50;;;;;8.28;66.79;100964.56;5100506;27;45318;-55
2022/11/20 07:18:32;;;;;;;;;13.00;10.00;;;;;8.28;66.32;100961.94;5100553;27;45259;-53
2022/11/20 07:21:05;;;;;;;;;9.50;9.50;;;;;8.19;67.02;100953.75;5100393;27;45276;-56
2022/11/20 07:23:31;;;;;;;;;10.25;9.00;;;;;8.30;66.20;100957.31;5099755;27;47013;-54
2022/11/20 07:25:56;;;;;;;;;8.67;8.00;;;;;8.26;66.38;100954.13;5099717;27;45421;-49
2022/11/20 07:28:22;;;;;;;;;6.00;6.00;;;;;8.21;66.63;100956.28;5099965;27;45376;-50
2022/11/20 07:30:52;;;;;;;;;11.67;8.00;;;;;8.21;66.06;100962.41;5100053;27;45383;-55
2022/11/20 07:33:18;;;;;;;;;9.67;6.00;;;;;8.23;66.11;100968.44;5099867;27;45380;-59
2022/11/20 07:35:43;;;;;;;;;6.75;6.00;;;;;8.15;65.94;100962.09;5099115;27;45499;-54
2022/11/20 07:38:09;;;;;;;;;10.33;9.00;;;;;8.11;65.88;100958.84;5099849;27;45405;-56
2022/11/20 07:40:34;;;;;;;;;14.00;9.25;;;;;8.10;66.64;100972.25;5100106;27;45296;-53
2022/11/20 07:42:59;;;;;;;;;6.00;6.00;;;;;8.07;66.18;100970.66;5099580;27;45428;-53
2022/11/20 07:45:25;;;;;;;;;5.75;5.25;;;;;8.08;65.91;100974.16;5099158;27;48483;-54
2022/11/20 07:47:50;;;;;;;;;5.75;5.75;;;;;8.03;66.07;100961.28;5099351;27;45358;-50
2022/11/20 07:50:16;;;;;;;;;8.00;6.00;;;;;8.05;65.95;100966.44;5099646;27;45476;-55
2022/11/20 07:52:42;;;;;;;;;9.33;5.33;;;;;7.99;65.70;100963.34;5099367;27;47441;-52
2022/11/20 07:55:08;;;;;;;;;8.75;6.00;;;;;7.94;66.53;100948.78;5098746;27;45522;-54
2022/11/20 07:57:34;;;;;;;;;8.75;6.00;;;;;7.63;66.35;100906.25;5099362;27;45415;-53
2022/11/20 07:59:59;;;;;;;;;10.25;8.00;;;;;8.02;66.93;100953.47;5099506;27;45207;-51
2022/11/20 08:02:25;;;;;;;;;13.33;7.33;;;;;8.04;66.96;100962.13;5099144;27;46071;-53
2022/11/20 08:04:50;;;;;;;;;6.75;6.75;;;;;8.04;65.82;100955.00;5099330;27;45299;-55
2022/11/20 08:07:15;;;;;;;;;8.50;8.50;;;;;8.10;66.56;100959.00;5099255;27;45234;-53
2022/11/20 08:09:41;;;;;;;;;12.25;9.00;;;;;8.15;66.59;100959.44;5099471;27;45299;-50
2022/11/20 08:14:51;;;;;;;;;7.67;5.00;;;;;8.23;65.76;100952.53;5099201;27;45241;-51
2022/11/20 08:17:16;;;;;;;;;15.50;10.50;;;;;8.26;66.68;100962.06;5099269;27;45290;-55
2022/11/20 08:19:41;;;;;;;;;10.75;9.00;;;;;8.30;65.61;100960.84;5099321;27;45484;-53
2022/11/20 08:22:07;;;;;;;;;9.00;9.00;;;;;8.32;65.83;100964.19;5098737;27;45473;-54
2022/11/20 08:24:32;;;;;;;;;7.33;5.33;;;;;8.29;66.40;100963.59;5098875;27;45220;-56
2022/11/20 08:26:58;;;;;;;;;11.25;5.75;;;;;8.31;66.09;100956.38;5099017;27;45325;-52
2022/11/20 08:29:24;;;;;;;;;13.00;7.00;;;;;8.33;66.56;100954.44;5099182;27;45332;-50
2022/11/20 08:31:49;;;;;;;;;10.00;9.50;;;;;8.37;65.93;100950.59;5098133;27;46171;-55
2022/11/20 08:34:15;;;;;;;;;15.75;10.00;;;;;8.39;66.31;100938.91;5098571;27;45244;-54
2022/11/20 08:36:40;;;;;;;;;10.33;9.00;;;;;8.40;66.37;100940.56;5099048;27;45336;-54
2022/11/20 08:39:05;;;;;;;;;12.25;10.00;;;;;8.43;66.24;100942.16;5098689;27;45432;-54
2022/11/20 08:41:32;;;;;;;;;19.67;11.00;;;;;8.45;66.23;100932.25;5098721;27;46267;-54
2022/11/20 08:44:03;;;;;;;;;12.25;11.00;;;;;8.48;66.05;100926.69;5097951;27;45409;-52
2022/11/20 08:46:35;;;;;;;;;11.00;10.00;;;;;8.47;66.14;100925.84;5098090;27;45542;-54
2022/11/20 08:49:00;;;;;;;;;9.00;9.00;;;;;8.50;66.09;100927.38;5098726;27;45221;-53
2022/11/20 08:51:26;;;;;;;;;16.50;8.75;;;;;8.51;66.61;100923.75;5098330;27;45962;-53
2022/11/20 08:53:51;;;;;;;;;15.50;9.50;;;;;8.50;67.28;100922.91;5098421;27;45598;-55
2022/11/20 08:56:17;;;;;;;;;15.75;9.75;;;;;8.48;66.45;100922.22;5098473;27;45223;-52
2022/11/20 08:58:43;;;;;;;;;20.00;14.75;;;;;8.51;66.58;100926.41;5098639;27;45359;-54
2022/11/20 09:01:08;;;;;;;;;14.33;12.67;;;;;8.49;67.03;100907.16;5098217;27;45368;-53
2022/11/20 09:03:33;;;;;;;;;15.00;9.00;;;;;8.52;66.98;100914.84;5098202;27;45349;-52
2022/11/20 09:06:00;;;;;;;;;15.50;10.75;;;;;8.49;68.20;100905.34;5098080;27;45345;-54
2022/11/20 09:08:27;;;;;;;;;14.50;12.75;;;;;8.48;68.14;100895.72;5097409;27;45437;-56
2022/11/20 09:10:53;;;;;;;;;18.00;10.25;;;;;8.50;68.08;100901.72;5096562;27;46344;-53
2022/11/20 09:13:20;;;;;;;;;18.00;11.75;;;;;8.51;68.87;100894.59;5097868;27;45549;-52
2022/11/20 09:15:45;;;;;;;;;7.33;4.00;;;;;8.54;68.81;100894.34;5098372;27;45508;-51
2022/11/20 09:18:11;;;;;;;;;16.75;12.75;;;;;8.47;67.72;100882.59;5098204;27;45242;-55
2022/11/20 09:20:36;;;;;;;;;13.00;12.00;;;;;8.62;67.95;100888.41;5098005;27;45352;-55
2022/11/20 09:23:02;;;;;;;;;12.67;10.00;;;;;8.63;68.36;100887.41;5098013;27;45271;-52
2022/11/20 09:25:27;;;;;;;;;11.00;11.00;;;;;8.59;67.94;100883.34;5098125;27;45188;-52
2022/11/20 09:27:57;;;;;;;;;10.67;9.67;;;;;8.59;67.47;100881.53;5098240;27;45226;-52
2022/11/20 09:30:23;;;;;;;;;8.00;8.00;;;;;8.57;68.77;100878.19;5097921;27;45358;-53
2022/11/20 09:32:48;;;;;;;;;15.33;13.00;;;;;8.58;68.48;100871.91;5097801;27;45419;-53
2022/11/20 09:35:14;;;;;;;;;5.00;3.00;;;;;8.57;68.48;100875.53;5098263;27;45195;-53
2022/11/20 09:37:40;;;;;;;;;14.00;10.67;;;;;8.57;69.71;100864.09;5098009;27;46174;-53
2022/11/20 09:40:06;;;;;;;;;9.67;6.67;;;;;8.54;68.99;100859.03;5097455;27;46063;-53
2022/11/20 09:42:44;;;;;;;;;19.00;13.50;;;;;8.51;69.62;100846.88;5097649;27;45456;-55
2022/11/20 09:45:31;;;;;;;;;14.25;13.00;;;;;8.49;70.20;100843.53;5097875;27;45264;-54
2022/11/20 09:48:06;;;;;;;;;7.50;7.50;;;;;8.51;69.58;100852.16;5099284;27;45289;-55
2022/11/20 09:50:32;;;;;;;;;20.75;12.50;;;;;8.49;69.98;100848.81;5097564;27;46544;-54
2022/11/20 09:53:30;;;;;;;;;12.00;12.00;;;;;8.46;70.94;100841.97;5097736;27;45374;-54
2022/11/20 09:55:56;;;;;;;;;18.25;12.75;;;;;8.51;70.55;100844.22;5097594;27;45420;-55
2022/11/20 09:58:32;;;;;;;;;11.50;9.00;;;;;8.55;71.63;100847.44;5097951;27;45475;-56
2022/11/20 10:01:08;;;;;;;;;15.00;11.25;;;;;8.56;71.60;100846.50;5097494;27;46025;-51
2022/11/20 10:03:49;;;;;;;;;11.33;10.67;;;;;8.54;71.50;100841.31;5097401;27;45345;-54
2022/11/20 10:06:18;;;;;;;;;11.67;9.33;;;;;8.59;70.81;100843.56;5097489;27;45368;-54
2022/11/20 10:09:05;;;;;;;;;9.33;9.00;;;;;8.58;71.11;100842.72;5097482;27;45355;-54
2022/11/20 10:11:48;;;;;;;;;10.00;8.50;;;;;8.63;71.71;100845.81;5097197;27;46154;-54
2022/11/20 10:14:23;;;;;;;;;10.67;9.00;;;;;8.66;71.53;100845.56;5097296;27;45433;-52
2022/11/20 10:16:55;;;;;;;;;10.00;10.00;;;;;8.66;71.72;100829.66;5097478;27;45400;-53
2022/11/20 10:19:44;;;;;;;;;9.00;6.00;;;;;8.69;71.14;100832.06;5099658;27;45208;-51
2022/11/20 10:22:57;;;;;;;;;15.00;8.75;;;;;8.68;71.92;100838.34;5100730;27;45455;-53
2022/11/20 10:25:30;;;;;;;;;9.00;9.00;;;;;8.69;71.59;100824.09;5037487;28;45432;-52
2022/11/20 10:28:21;;;;;;;;;12.50;10.00;;;;;8.68;72.93;100819.78;5037859;28;45332;-52
2022/11/20 10:31:00;;;;;;;;;8.33;7.67;;;;;8.66;71.95;100805.78;5038035;28;45364;-50
2022/11/20 10:33:29;;;;;;;;;16.25;11.00;;;;;8.67;72.35;100820.72;5037529;28;45431;-52
2022/11/20 10:35:54;;;;;;;;;9.33;9.00;;;;;8.66;72.81;100811.09;5037387;28;45408;-53
2022/11/20 10:38:35;;;;;;;;;11.67;10.00;;;;;8.69;73.12;100802.03;5037782;28;45466;-52
2022/11/20 10:43:53;;;;;;;;;14.50;13.25;;;;;8.71;73.14;100782.34;5037621;28;45353;-54
2022/11/20 10:46:24;;;;;;;;;17.00;12.75;;;;;8.73;74.80;100784.88;5037049;28;45336;-52
2022/11/20 10:48:51;;;;;;;;;10.33;10.33;;;;;8.74;73.68;100778.59;5037477;28;45390;-52
2022/11/20 10:51:40;;;;;;;;;10.75;10.00;;;;;8.78;75.06;100785.31;5037776;28;45451;-52
2022/11/20 10:54:08;;;;;;;;;12.33;9.67;;;;;8.80;74.17;100798.44;5037341;28;46370;-53
2022/11/20 10:56:56;;;;;;;;;8.67;7.67;;;;;8.82;74.61;100794.69;5037102;28;45582;-52
2022/11/20 10:59:37;;;;;;;;;9.00;9.00;;;;;8.86;74.65;100788.16;5068890;27;45424;-54
2022/11/20 11:02:14;;;;;;;;;9.75;9.25;;;;;8.82;74.34;100759.38;5100487;27;45375;-47
2022/11/20 11:04:45;;;;;;;;;6.67;6.67;;;;;8.97;74.90;100781.88;5100271;27;46101;-51
2022/11/20 11:07:16;;;;;;;;;11.25;10.50;;;;;9.01;75.17;100775.31;5099951;27;45424;-50
2022/11/20 11:09:48;;;;;;;;;5.33;5.00;;;;;9.05;75.64;100768.78;5100336;27;45290;-52
2022/11/20 11:12:13;;;;;;;;;10.33;9.00;;;;;9.00;74.88;100747.97;5100496;27;45644;-52
2022/11/20 11:14:47;;;;;;;;;7.00;6.00;;;;;9.08;75.01;100755.25;5099991;27;45332;-52
2022/11/20 11:17:45;;;;;;;;;8.67;6.00;;;;;9.09;75.41;100751.59;5099952;27;45358;-53
2022/11/20 11:20:11;;;;;;;;;8.33;7.00;;;;;9.12;74.96;100746.03;5100013;27;45436;-54
2022/11/20 11:22:48;;;;;;;;;5.00;5.00;;;;;9.15;76.35;100734.31;5099992;27;45463;-53
2022/11/20 11:25:35;;;;;;;;;10.00;6.00;;;;;9.07;75.74;100716.44;5099173;27;45385;-54
2022/11/20 11:28:04;;;;;;;;;9.00;7.00;;;;;9.16;76.50;100728.03;5099701;27;45414;-49
2022/11/20 11:30:41;;;;;;;;;5.67;5.67;;;;;9.17;76.69;100738.50;5097632;27;45385;-49
2022/11/20 11:33:11;;;;;;;;;5.67;5.67;;;;;9.17;76.50;100727.03;5100084;27;45420;-53
2022/11/20 11:35:48;;;;;;;;;4.00;2.00;;;;;9.19;76.13;100739.22;5099563;27;47283;-54
2022/11/20 11:38:22;;;;;;;;;6.00;5.00;;;;;9.19;76.08;100738.38;5099629;27;45390;-51
2022/11/20 11:40:47;;;;;;;;;5.33;2.33;;;;;9.19;76.26;100731.25;5099713;27;45409;-52
2022/11/20 11:46:33;;;;;;;;;5.33;5.33;;;;;9.25;76.91;100724.53;5099325;27;45423;-51
2022/11/20 11:49:03;;;;;;;;;5.00;4.00;;;;;9.15;76.98;100698.00;5099348;27;45333;-51
2022/11/20 11:51:38;;;;;;;;;6.00;4.67;;;;;9.30;76.02;100721.47;5099489;27;45441;-51